Time;durP1;ratioP1;P1;durP2;ratioP2;P2;SDS_P1;SDS_P2;PMS_P1;PMS_P2;Temp;Humidity;BMP_temperature;BMP_pressure;BME280_temperature;BME280_humidity;BME280_pressure;Samples;Min_cycle;Max_cycle;Signal;HPM_P1;HPM_P2
2023/05/29 00:02:16;;;;;;;20.13;6.57;;;;;;;41.43;36.27;101045.91;5051523;28;20447;-84
2023/05/29 00:04:42;;;;;;;15.70;5.90;;;;;;;41.40;36.30;101039.19;5052167;28;20505;-84
2023/05/29 00:07:08;;;;;;;15.03;7.73;;;;;;;41.37;36.65;101042.56;5052154;28;20230;-84
2023/05/29 00:09:34;;;;;;;25.60;9.07;;;;;;;41.38;36.46;101049.63;5050910;28;20209;-84
2023/05/29 00:12:01;;;;;;;14.80;4.73;;;;;;;41.53;36.18;101038.19;5051949;28;20411;-84
2023/05/29 00:14:27;;;;;;;17.73;7.00;;;;;;;41.56;36.56;101036.75;5051860;28;20196;-85
2023/05/29 00:16:52;;;;;;;21.17;7.30;;;;;;;41.45;36.83;101030.06;5050678;28;20457;-85
2023/05/29 00:19:21;;;;;;;18.60;6.70;;;;;;;41.57;36.65;101030.16;5052881;28;20188;-86
2023/05/29 00:21:48;;;;;;;13.90;5.50;;;;;;;41.54;36.49;101022.63;5051099;28;20422;-85
2023/05/29 00:24:15;;;;;;;19.17;8.10;;;;;;;41.39;37.04;101020.47;5052745;28;20429;-84
2023/05/29 00:26:41;;;;;;;23.23;6.83;;;;;;;41.45;36.94;101002.81;5045456;28;20474;-84
2023/05/29 00:29:07;;;;;;;15.77;5.60;;;;;;;41.50;37.01;101000.72;5033371;28;20834;-84
2023/05/29 00:31:33;;;;;;;19.30;5.37;;;;;;;41.44;36.46;100993.88;5033557;28;20267;-84
2023/05/29 00:33:59;;;;;;;17.33;5.40;;;;;;;41.43;36.13;100980.56;5033292;28;20234;-84
2023/05/29 00:36:26;;;;;;;16.60;6.50;;;;;;;41.48;36.35;100974.94;5034516;28;20447;-84
2023/05/29 00:38:52;;;;;;;12.40;4.97;;;;;;;41.37;36.00;100976.41;5030680;28;20415;-85
2023/05/29 00:41:18;;;;;;;11.53;4.80;;;;;;;41.48;36.22;100981.16;5040101;28;21019;-85
2023/05/29 00:43:44;;;;;;;14.73;5.47;;;;;;;41.37;36.63;100979.16;5052127;28;20422;-85
2023/05/29 00:46:13;;;;;;;16.13;5.93;;;;;;;41.36;36.69;100970.19;5051351;28;20443;-85
2023/05/29 00:48:41;;;;;;;17.50;5.53;;;;;;;41.44;36.40;100980.25;5050688;28;20419;-85
2023/05/29 00:51:08;;;;;;;15.43;5.40;;;;;;;41.47;36.56;100976.06;5043099;28;20440;-84
2023/05/29 00:53:34;;;;;;;18.90;5.60;;;;;;;41.46;36.80;100966.31;5031556;28;20473;-85
2023/05/29 00:56:02;;;;;;;17.57;6.27;;;;;;;41.38;36.50;100967.94;5031867;28;20455;-85
2023/05/29 00:58:28;;;;;;;19.67;6.70;;;;;;;41.38;36.84;100970.66;5032116;28;20521;-85
2023/05/29 01:00:54;;;;;;;11.40;6.53;;;;;;;41.47;36.31;100970.63;5025661;28;20473;-85
2023/05/29 01:03:22;;;;;;;14.40;4.67;;;;;;;41.45;36.63;100967.44;5035534;28;20811;-85
2023/05/29 01:05:48;;;;;;;25.50;8.83;;;;;;;41.39;37.23;100979.63;5035686;28;20418;-85
2023/05/29 01:08:14;;;;;;;18.10;6.33;;;;;;;41.53;36.78;100978.28;5054268;28;20907;-86
2023/05/29 01:10:44;;;;;;;14.20;4.20;;;;;;;41.50;36.44;100967.25;5028840;28;20424;-84
2023/05/29 01:13:19;;;;;;;15.10;5.17;;;;;;;41.48;36.78;100969.47;5023509;28;20454;-84
2023/05/29 01:16:17;;;;;;;16.57;6.90;;;;;;;41.39;36.99;100963.31;5024499;28;20419;-84
2023/05/29 01:18:52;;;;;;;11.70;5.67;;;;;;;41.41;36.73;100959.09;5023709;28;20456;-84
2023/05/29 01:21:23;;;;;;;20.30;6.80;;;;;;;41.37;36.68;100960.09;5023767;28;20483;-86
2023/05/29 01:24:24;;;;;;;16.27;4.83;;;;;;;41.47;36.60;100954.28;5024903;28;20501;-84
2023/05/29 01:27:03;;;;;;;16.20;7.77;;;;;;;41.47;36.24;100948.84;5005620;28;20773;-83
2023/05/29 01:29:32;;;;;;;18.43;5.53;;;;;;;41.45;35.82;100949.16;5024800;28;20580;-83
2023/05/29 01:31:59;;;;;;;11.47;4.87;;;;;;;41.30;36.37;100941.50;5025823;28;20511;-84
2023/05/29 01:34:25;;;;;;;17.30;6.27;;;;;;;41.31;36.17;100934.94;5023378;28;20414;-85
2023/05/29 01:36:51;;;;;;;26.30;8.50;;;;;;;41.28;36.58;100925.53;5024844;28;20455;-83
2023/05/29 01:39:19;;;;;;;20.83;7.97;;;;;;;41.36;36.44;100926.63;5022984;28;20446;-82
2023/05/29 01:41:46;;;;;;;19.63;9.00;;;;;;;41.39;35.67;100919.75;5042490;28;20408;-83
2023/05/29 01:44:13;;;;;;;24.53;10.60;;;;;;;41.37;35.93;100921.97;5023547;28;20416;-84
2023/05/29 01:46:41;;;;;;;12.47;4.80;;;;;;;41.34;35.46;100934.34;5023826;28;20422;-83
2023/05/29 01:49:09;;;;;;;17.53;6.53;;;;;;;41.22;36.23;100932.28;5042741;28;20446;-84
2023/05/29 01:51:35;;;;;;;11.87;6.70;;;;;;;41.25;35.72;100923.47;5023699;28;20922;-82
2023/05/29 01:54:02;;;;;;;15.13;4.90;;;;;;;41.29;35.39;100920.88;5023700;28;20407;-83
2023/05/29 01:56:30;;;;;;;27.03;8.53;;;;;;;41.30;35.80;100915.09;5024051;28;20496;-83
2023/05/29 01:58:57;;;;;;;14.93;5.67;;;;;;;41.24;36.13;100912.88;5023331;28;20418;-83
2023/05/29 02:01:24;;;;;;;23.30;6.63;;;;;;;41.26;36.05;100906.00;5023116;28;20844;-83
2023/05/29 02:03:51;;;;;;;20.03;5.83;;;;;;;41.44;35.81;100906.75;5024550;28;20839;-83
2023/05/29 02:06:17;;;;;;;20.43;6.43;;;;;;;41.37;36.45;100902.91;5023280;28;20447;-84
2023/05/29 02:08:43;;;;;;;22.07;6.20;;;;;;;41.41;36.17;100890.25;5023072;28;20968;-84
2023/05/29 02:11:09;;;;;;;11.90;5.27;;;;;;;41.30;36.37;100893.31;5021540;28;20506;-83
2023/05/29 02:13:35;;;;;;;25.03;7.50;;;;;;;41.30;36.35;100890.59;5042420;28;20450;-83
2023/05/29 02:16:01;;;;;;;18.40;6.07;;;;;;;41.37;36.60;100883.88;5024888;28;20910;-83
2023/05/29 02:18:27;;;;;;;24.97;5.70;;;;;;;41.32;36.37;100882.13;5023778;28;20536;-83
2023/05/29 02:20:52;;;;;;;14.90;5.10;;;;;;;41.40;36.08;100877.78;5024304;28;20223;-85
2023/05/29 02:23:20;;;;;;;24.77;5.67;;;;;;;41.42;36.14;100884.47;5022961;28;20203;-83
2023/05/29 02:25:46;;;;;;;28.03;9.30;;;;;;;41.39;36.83;100884.34;5022898;28;20990;-83
2023/05/29 02:28:12;;;;;;;24.53;7.97;;;;;;;41.38;37.45;100880.03;5042179;28;20490;-83
2023/05/29 02:30:38;;;;;;;29.83;9.00;;;;;;;41.40;37.52;100896.81;5024332;28;20414;-83
2023/05/29 02:33:06;;;;;;;19.53;6.37;;;;;;;41.27;36.98;100895.91;5024295;28;20949;-83
2023/05/29 02:35:32;;;;;;;8.83;3.43;;;;;;;41.25;36.77;100900.88;5023043;28;20446;-85
2023/05/29 02:37:58;;;;;;;15.00;6.23;;;;;;;41.23;36.66;100890.31;5024716;28;20530;-84
2023/05/29 02:40:24;;;;;;;27.20;6.17;;;;;;;41.22;36.73;100886.00;5022699;28;20514;-83
2023/05/29 02:42:50;;;;;;;29.40;6.70;;;;;;;41.30;36.99;100890.59;5022971;28;20549;-83
2023/05/29 02:45:17;;;;;;;18.50;6.73;;;;;;;41.26;36.76;100876.06;5025031;28;20415;-83
2023/05/29 02:47:43;;;;;;;13.77;5.50;;;;;;;41.24;36.73;100872.84;5026841;28;20419;-83
2023/05/29 02:50:09;;;;;;;13.13;4.93;;;;;;;41.23;36.65;100879.44;5028207;28;20440;-83
2023/05/29 02:52:39;;;;;;;16.13;4.67;;;;;;;41.26;36.76;100878.78;5026974;28;20498;-83
2023/05/29 02:55:06;;;;;;;32.47;7.80;;;;;;;41.23;36.62;100873.97;5027892;28;20470;-84
2023/05/29 02:57:32;;;;;;;12.80;6.43;;;;;;;41.00;36.85;100865.28;5027889;28;20529;-84
2023/05/29 02:59:59;;;;;;;15.00;6.53;;;;;;;41.21;36.65;100859.13;5027149;28;20457;-83
2023/05/29 03:02:25;;;;;;;30.93;7.80;;;;;;;41.13;36.82;100851.78;5026018;28;21055;-83
2023/05/29 03:04:53;;;;;;;12.63;6.00;;;;;;;41.24;36.36;100853.00;5026063;28;20439;-85
2023/05/29 03:07:19;;;;;;;13.67;5.57;;;;;;;41.27;36.72;100852.38;5026745;28;20436;-85
2023/05/29 03:09:45;;;;;;;14.63;5.63;;;;;;;41.26;37.34;100851.56;5027593;28;20425;-83
2023/05/29 03:12:11;;;;;;;12.70;4.73;;;;;;;41.12;37.22;100861.88;5027858;28;20418;-83
2023/05/29 03:14:37;;;;;;;15.37;5.63;;;;;;;41.18;37.36;100857.84;5026798;28;20258;-83
2023/05/29 03:17:10;;;;;;;16.00;6.17;;;;;;;41.20;36.75;100868.41;5026317;28;20870;-83
2023/05/29 03:19:37;;;;;;;14.73;7.20;;;;;;;41.28;37.11;100864.84;5026186;28;20429;-83
2023/05/29 03:22:03;;;;;;;16.07;6.37;;;;;;;41.36;37.12;100874.91;5027492;28;20423;-83
2023/05/29 03:24:29;;;;;;;12.53;5.33;;;;;;;41.29;37.16;100872.66;5025432;28;20420;-83
2023/05/29 03:26:55;;;;;;;20.60;5.33;;;;;;;41.19;37.17;100873.06;5026929;28;20421;-83
2023/05/29 03:29:22;;;;;;;18.13;5.03;;;;;;;41.33;36.83;100883.75;5045019;28;20450;-83
2023/05/29 03:31:48;;;;;;;19.43;5.83;;;;;;;41.26;37.29;100888.88;5025376;28;20534;-83
2023/05/29 03:34:14;;;;;;;26.53;8.70;;;;;;;41.16;37.55;100897.41;5026985;28;20469;-84
2023/05/29 03:36:40;;;;;;;31.67;8.30;;;;;;;41.18;37.23;100887.78;5026681;28;20491;-83
2023/05/29 03:39:06;;;;;;;26.50;8.20;;;;;;;41.18;37.53;100890.50;5027927;28;20488;-83
2023/05/29 03:41:32;;;;;;;21.00;4.03;;;;;;;41.01;37.43;100896.84;5025763;28;20481;-83
2023/05/29 03:43:58;;;;;;;17.23;7.17;;;;;;;41.21;36.77;100900.75;5026357;28;20817;-85
2023/05/29 03:46:24;;;;;;;14.40;4.60;;;;;;;41.11;36.99;100889.44;5027042;28;20991;-83
2023/05/29 03:48:50;;;;;;;17.83;7.43;;;;;;;41.04;36.79;100898.09;5026355;28;20438;-83
2023/05/29 03:51:16;;;;;;;22.43;7.37;;;;;;;41.27;37.06;100895.91;5025934;28;20518;-83
2023/05/29 03:53:42;;;;;;;25.83;6.70;;;;;;;41.06;37.09;100890.41;5025477;28;20521;-82
2023/05/29 03:56:08;;;;;;;17.57;5.73;;;;;;;41.17;36.95;100886.19;5026295;28;20419;-83
2023/05/29 03:58:34;;;;;;;20.03;6.60;;;;;;;41.29;36.90;100886.28;5026425;28;20207;-85
2023/05/29 04:01:00;;;;;;;14.60;6.00;;;;;;;41.22;37.12;100886.00;5025670;28;20470;-83
2023/05/29 04:03:27;;;;;;;16.67;6.13;;;;;;;41.24;36.68;100877.50;5026810;28;20470;-83
2023/05/29 04:05:53;;;;;;;13.33;4.43;;;;;;;41.24;36.60;100880.22;5025310;28;20416;-84
2023/05/29 04:08:20;;;;;;;23.50;8.07;;;;;;;41.00;37.61;100884.34;5025334;28;20431;-83
2023/05/29 04:10:46;;;;;;;13.50;4.30;;;;;;;41.07;37.91;100883.84;5026663;28;20210;-84
2023/05/29 04:13:12;;;;;;;31.97;10.10;;;;;;;41.36;37.81;100893.97;5043714;28;20945;-84
2023/05/29 04:15:38;;;;;;;23.80;8.30;;;;;;;41.13;37.88;100893.44;5026182;28;20419;-84
2023/05/29 04:18:04;;;;;;;24.00;7.80;;;;;;;41.24;37.68;100888.38;5024725;28;20450;-84
2023/05/29 04:20:30;;;;;;;14.40;5.90;;;;;;;41.12;38.00;100894.53;5026389;28;20422;-83
2023/05/29 04:22:56;;;;;;;14.70;5.57;;;;;;;40.93;37.95;100888.69;5024089;28;20796;-84
2023/05/29 04:25:22;;;;;;;16.67;5.40;;;;;;;40.86;37.88;100883.75;5025936;28;20478;-84
2023/05/29 04:27:48;;;;;;;19.60;6.70;;;;;;;41.10;37.77;100898.72;5024422;28;20415;-83
2023/05/29 04:30:16;;;;;;;20.60;6.60;;;;;;;41.15;37.21;100899.34;5043765;28;20411;-83
2023/05/29 04:32:42;;;;;;;20.63;5.13;;;;;;;40.98;37.67;100902.13;5025917;28;20522;-83
2023/05/29 04:35:09;;;;;;;13.07;5.37;;;;;;;41.00;37.09;100897.94;5023853;28;20437;-83
2023/05/29 04:37:41;;;;;;;12.60;5.97;;;;;;;41.04;36.94;100906.25;5024827;28;20462;-84
2023/05/29 04:40:11;;;;;;;19.27;6.60;;;;;;;40.94;37.17;100910.13;5029661;28;20777;-84
2023/05/29 04:42:39;;;;;;;23.70;6.90;;;;;;;41.17;36.70;100916.13;5033957;28;20419;-85
2023/05/29 04:45:06;;;;;;;11.83;4.63;;;;;;;41.14;36.71;100914.06;5018543;28;20425;-86
2023/05/29 04:47:36;;;;;;;23.73;8.80;;;;;;;41.14;36.48;100914.06;5014691;28;20435;-86
2023/05/29 04:50:02;;;;;;;22.70;7.50;;;;;;;41.11;36.97;100922.06;5014685;28;20411;-86
2023/05/29 04:52:28;;;;;;;20.73;8.73;;;;;;;41.18;37.63;100919.63;5014653;28;20537;-86
2023/05/29 04:54:56;;;;;;;19.07;8.40;;;;;;;41.14;37.19;100926.88;5027843;28;20505;-86
2023/05/29 04:57:22;;;;;;;11.77;5.90;;;;;;;41.13;36.48;100917.09;5034564;28;20466;-86
2023/05/29 04:59:48;;;;;;;16.00;4.57;;;;;;;41.07;36.40;100922.75;5033962;28;20499;-86
2023/05/29 05:02:14;;;;;;;19.43;7.33;;;;;;;41.12;36.48;100913.59;5034339;28;20461;-86
2023/05/29 05:04:40;;;;;;;15.83;6.50;;;;;;;41.13;36.44;100917.94;5023777;28;20933;-86
2023/05/29 05:07:06;;;;;;;17.93;6.80;;;;;;;41.00;36.91;100918.91;5014429;28;20481;-86
2023/05/29 05:09:32;;;;;;;19.77;6.83;;;;;;;41.23;36.82;100917.53;5014586;28;20181;-86
2023/05/29 05:11:58;;;;;;;22.90;8.37;;;;;;;41.18;37.34;100917.72;5032129;28;20534;-86
2023/05/29 05:14:24;;;;;;;14.30;5.37;;;;;;;41.17;37.27;100926.22;5023492;28;20180;-86
2023/05/29 05:16:50;;;;;;;15.20;7.23;;;;;;;41.17;37.17;100918.84;5035703;28;20447;-86
2023/05/29 05:19:17;;;;;;;43.73;8.83;;;;;;;41.13;37.59;100938.88;5054046;28;20406;-86
2023/05/29 05:21:43;;;;;;;20.53;6.43;;;;;;;41.06;37.09;100947.53;5035789;28;20414;-86
2023/05/29 05:24:09;;;;;;;24.73;6.60;;;;;;;41.15;37.12;100951.03;5030269;28;20530;-86
2023/05/29 05:26:34;;;;;;;25.27;8.23;;;;;;;40.95;37.46;100949.03;5015883;28;20180;-86
2023/05/29 05:29:00;;;;;;;19.63;8.20;;;;;;;41.03;37.12;100954.44;5015679;28;20430;-84
2023/05/29 05:31:26;;;;;;;24.60;6.43;;;;;;;41.02;37.47;100960.22;5015864;28;20181;-84
2023/05/29 05:33:53;;;;;;;14.00;6.20;;;;;;;41.14;36.79;100967.72;5018900;28;20446;-84
2023/05/29 05:36:19;;;;;;;22.40;6.37;;;;;;;41.19;37.07;100968.31;5035607;28;20430;-84
2023/05/29 05:38:45;;;;;;;18.00;6.73;;;;;;;41.06;37.18;100969.31;5035397;28;20867;-85
2023/05/29 05:41:11;;;;;;;17.00;4.90;;;;;;;41.05;37.00;100973.97;5035293;28;20437;-85
2023/05/29 05:43:37;;;;;;;10.33;7.73;;;;;;;41.14;36.75;100973.16;5035103;28;20949;-84
2023/05/29 05:46:03;;;;;;;18.30;8.07;;;;;;;41.09;37.11;100976.84;5015466;28;20477;-85
2023/05/29 05:48:29;;;;;;;20.50;5.97;;;;;;;41.19;36.78;100981.94;5015283;28;20439;-86
2023/05/29 05:50:55;;;;;;;19.77;6.53;;;;;;;41.24;36.59;100979.00;5015511;28;20184;-86
2023/05/29 05:53:21;;;;;;;19.70;7.57;;;;;;;41.24;36.77;100980.94;5033390;28;20409;-84
2023/05/29 05:55:47;;;;;;;12.43;5.30;;;;;;;41.26;36.92;100984.94;5030934;28;20431;-85
2023/05/29 05:58:13;;;;;;;25.57;7.70;;;;;;;41.28;37.00;100990.84;5034982;28;20478;-84
2023/05/29 06:00:40;;;;;;;13.50;5.70;;;;;;;41.21;36.72;100990.56;5034708;28;20478;-84
2023/05/29 06:03:06;;;;;;;18.17;7.07;;;;;;;41.36;36.67;101010.22;5034878;28;20277;-84
2023/05/29 06:05:34;;;;;;;17.37;7.53;;;;;;;41.20;37.11;101005.31;5029576;28;20443;-84
2023/05/29 06:08:00;;;;;;;11.87;5.50;;;;;;;41.33;37.08;101026.09;5015273;28;20410;-84
2023/05/29 06:10:25;;;;;;;19.93;6.77;;;;;;;41.27;36.64;101030.09;5015043;28;20419;-84
2023/05/29 06:12:52;;;;;;;19.53;6.17;;;;;;;41.23;36.96;101031.06;5014946;28;20423;-84
2023/05/29 06:15:18;;;;;;;23.07;6.67;;;;;;;41.40;38.02;101038.41;5018107;28;20187;-84
2023/05/29 06:17:44;;;;;;;18.70;6.00;;;;;;;41.46;38.61;101034.38;5034731;28;20537;-84
2023/05/29 06:20:11;;;;;;;24.13;5.63;;;;;;;41.50;38.48;101040.78;5034559;28;20482;-84
2023/05/29 06:22:37;;;;;;;22.40;8.33;;;;;;;41.54;38.03;101041.69;5034784;28;20468;-86
2023/05/29 06:25:04;;;;;;;16.53;7.30;;;;;;;41.50;38.32;101040.78;5034553;28;20461;-86
2023/05/29 06:27:30;;;;;;;20.53;6.00;;;;;;;41.57;38.39;101041.06;5036116;28;20431;-86
2023/05/29 06:29:56;;;;;;;21.37;7.53;;;;;;;41.54;38.19;101041.69;5015204;28;20420;-86
2023/05/29 06:32:22;;;;;;;19.70;7.10;;;;;;;41.51;37.75;101045.88;5014748;28;20424;-84
2023/05/29 06:34:48;;;;;;;17.00;8.13;;;;;;;41.51;37.20;101051.34;5014974;28;20590;-84
2023/05/29 06:37:14;;;;;;;13.87;5.07;;;;;;;41.50;37.58;101062.56;5014907;28;20450;-84
2023/05/29 06:39:44;;;;;;;17.47;6.40;;;;;;;41.45;37.70;101060.81;5030259;28;20550;-84
2023/05/29 06:42:10;;;;;;;16.20;5.80;;;;;;;41.45;37.50;101062.72;5022173;28;20422;-84
2023/05/29 06:44:35;;;;;;;21.83;7.63;;;;;;;41.54;37.52;101074.38;5015355;28;20404;-84
2023/05/29 06:47:01;;;;;;;19.77;6.47;;;;;;;41.52;37.86;101084.81;5015559;28;20482;-84
2023/05/29 06:49:27;;;;;;;20.43;7.07;;;;;;;41.57;37.46;101095.53;5021743;28;20176;-84
2023/05/29 06:51:53;;;;;;;18.00;6.97;;;;;;;41.58;37.84;101108.00;5034592;28;20179;-84
2023/05/29 06:54:19;;;;;;;13.50;5.47;;;;;;;41.52;37.80;101118.28;5034604;28;20484;-84
2023/05/29 06:56:45;;;;;;;17.90;5.50;;;;;;;41.55;37.61;101125.00;5034175;28;20191;-84
2023/05/29 06:59:11;;;;;;;24.43;4.83;;;;;;;41.54;37.23;101128.84;5029901;28;20412;-84
2023/05/29 07:01:37;;;;;;;19.67;8.70;;;;;;;41.57;37.75;101128.19;5032137;28;20278;-84
2023/05/29 07:04:04;;;;;;;22.93;7.33;;;;;;;41.55;38.34;101136.69;5014727;28;20635;-84
2023/05/29 07:06:30;;;;;;;21.50;7.13;;;;;;;41.59;37.71;101151.25;5014603;28;20510;-84
2023/05/29 07:08:55;;;;;;;16.90;6.93;;;;;;;41.55;37.16;101152.22;5016010;28;20420;-84
2023/05/29 07:11:21;;;;;;;16.17;5.80;;;;;;;41.57;37.08;101171.78;5034346;28;20235;-84
2023/05/29 07:13:47;;;;;;;11.93;4.73;;;;;;;41.54;36.27;101172.41;5052468;28;20920;-84
2023/05/29 07:16:13;;;;;;;23.33;5.40;;;;;;;41.51;36.21;101181.25;5034270;28;20509;-84
2023/05/29 07:18:39;;;;;;;18.70;6.57;;;;;;;41.52;35.95;101191.00;5034071;28;20502;-86
2023/05/29 07:21:05;;;;;;;15.47;6.50;;;;;;;41.53;36.68;101198.06;5033625;28;20408;-86
2023/05/29 07:23:31;;;;;;;20.03;6.73;;;;;;;41.52;36.88;101207.34;5032528;28;20882;-85
2023/05/29 07:25:57;;;;;;;23.77;7.57;;;;;;;41.57;37.14;101215.34;5014314;28;20431;-85
2023/05/29 07:28:23;;;;;;;15.27;6.90;;;;;;;41.57;37.27;101216.16;5014387;28;20510;-84
2023/05/29 07:30:49;;;;;;;20.47;6.33;;;;;;;41.60;37.08;101212.75;5030262;28;20188;-83
2023/05/29 07:33:15;;;;;;;17.40;5.77;;;;;;;41.58;36.87;101212.28;5025415;28;20561;-83
2023/05/29 07:35:41;;;;;;;16.37;6.60;;;;;;;41.55;36.58;101210.22;5036048;28;20910;-83
2023/05/29 07:38:07;;;;;;;15.80;6.50;;;;;;;41.54;36.44;101218.72;5037512;28;20203;-83
2023/05/29 07:40:33;;;;;;;17.47;6.17;;;;;;;41.53;36.49;101214.38;5035382;28;20219;-83
2023/05/29 07:42:59;;;;;;;16.60;5.90;;;;;;;41.52;36.97;101199.19;5036516;28;20184;-83
2023/05/29 07:45:24;;;;;;;18.10;5.00;;;;;;;41.53;36.77;101198.06;5036027;28;20180;-83
2023/05/29 07:47:50;;;;;;;14.97;5.43;;;;;;;41.55;36.71;101195.78;5036293;28;20421;-83
2023/05/29 07:50:16;;;;;;;12.33;4.90;;;;;;;41.54;36.62;101205.88;5033390;28;20227;-83
2023/05/29 07:52:43;;;;;;;21.10;5.90;;;;;;;41.46;35.89;101198.53;5036049;28;20319;-83
2023/05/29 07:55:10;;;;;;;19.93;7.03;;;;;;;41.43;36.24;101201.91;5035991;28;20423;-81
2023/05/29 07:57:36;;;;;;;27.70;8.10;;;;;;;41.44;36.48;101217.13;5033078;28;20454;-82
2023/05/29 08:00:07;;;;;;;12.50;5.87;;;;;;;41.44;36.72;101219.84;5051373;28;20594;-82
2023/05/29 08:02:34;;;;;;;16.13;4.57;;;;;;;41.39;36.43;101219.22;5052833;28;20454;-82
2023/05/29 08:05:00;;;;;;;18.77;8.07;;;;;;;41.43;36.49;101218.22;5036854;28;20414;-82
2023/05/29 08:07:30;;;;;;;19.20;6.07;;;;;;;41.41;36.55;101209.59;5036477;28;20407;-82
2023/05/29 08:09:56;;;;;;;20.13;7.40;;;;;;;41.43;36.56;101206.53;5035441;28;20207;-82
2023/05/29 08:12:22;;;;;;;16.90;5.23;;;;;;;41.43;36.61;101203.81;5035680;28;20419;-82
2023/05/29 08:14:48;;;;;;;20.40;5.60;;;;;;;41.45;37.13;101196.94;5036806;28;20921;-82
2023/05/29 08:17:14;;;;;;;16.90;6.30;;;;;;;41.47;37.70;101193.91;5036423;28;20482;-82
2023/05/29 08:19:40;;;;;;;17.37;6.50;;;;;;;41.51;37.80;101197.59;5036605;28;20509;-82
2023/05/29 08:22:06;;;;;;;14.60;5.00;;;;;;;41.44;37.59;101194.56;5033481;28;20415;-82
2023/05/29 08:24:32;;;;;;;24.27;6.30;;;;;;;41.40;36.92;101212.66;5036375;28;20820;-81
2023/05/29 08:26:58;;;;;;;15.63;5.73;;;;;;;41.38;36.84;101212.97;5035391;28;20191;-82
2023/05/29 08:29:24;;;;;;;15.93;7.53;;;;;;;41.40;37.21;101226.25;5037025;28;20176;-82
2023/05/29 08:31:50;;;;;;;24.40;6.60;;;;;;;41.38;37.35;101212.97;5029183;28;20534;-82
2023/05/29 08:34:17;;;;;;;17.93;5.80;;;;;;;41.36;37.35;101217.13;5036590;28;20423;-82
2023/05/29 08:36:43;;;;;;;13.67;5.17;;;;;;;41.27;37.39;101200.78;5036635;28;20869;-83
2023/05/29 08:39:09;;;;;;;17.60;7.77;;;;;;;41.35;37.80;101200.00;5036966;28;20453;-84
2023/05/29 08:42:07;;;;;;;17.80;5.47;;;;;;;41.33;37.26;101184.00;5036489;28;20180;-84
2023/05/29 08:44:33;;;;;;;23.93;7.90;;;;;;;41.34;37.26;101171.19;5004209;28;20443;-83
2023/05/29 08:47:06;;;;;;;15.30;5.77;;;;;;;41.40;37.38;101169.09;5019193;28;20435;-85
2023/05/29 08:49:42;;;;;;;29.13;7.10;;;;;;;41.23;35.44;101203.34;5034543;28;20563;-84
2023/05/29 08:52:29;;;;;;;25.93;6.97;;;;;;;41.11;35.76;101235.03;5035681;28;20421;-87
2023/05/29 08:54:56;;;;;;;27.10;7.47;;;;;;;41.04;35.66;101254.56;5036346;28;20506;-82
2023/05/29 08:57:23;;;;;;;17.50;4.43;;;;;;;40.92;35.94;101297.91;5036117;28;20447;-84
2023/05/29 08:59:52;;;;;;;30.73;8.00;;;;;;;40.86;35.75;101315.47;5033097;28;21180;-84
2023/05/29 09:02:19;;;;;;;17.00;6.93;;;;;;;40.88;35.98;101341.25;5032692;28;20442;-82
2023/05/29 09:04:48;;;;;;;28.10;7.10;;;;;;;40.63;36.13;101353.63;5053184;28;20413;-82
2023/05/29 09:07:15;;;;;;;24.60;7.47;;;;;;;40.62;37.24;101351.22;5054317;28;20457;-81
2023/05/29 09:09:42;;;;;;;22.60;7.43;;;;;;;40.64;36.59;101343.56;5034204;28;20411;-82
2023/05/29 09:12:09;;;;;;;17.57;6.30;;;;;;;40.58;37.14;101323.88;5034434;28;20411;-82
2023/05/29 09:14:45;;;;;;;24.90;8.50;;;;;;;40.47;37.56;101282.56;5033715;28;20508;-82
2023/05/29 09:17:12;;;;;;;21.17;7.23;;;;;;;40.50;37.95;101243.06;5031640;28;20461;-81
2023/05/29 09:19:40;;;;;;;23.73;8.60;;;;;;;40.58;37.68;101211.56;5033994;28;20499;-85
2023/05/29 09:22:14;;;;;;;28.13;9.33;;;;;;;40.59;37.43;101175.91;5034117;28;20423;-83
2023/05/29 09:24:41;;;;;;;36.30;11.40;;;;;;;40.62;37.62;101172.53;5034401;28;20988;-83
2023/05/29 09:27:11;;;;;;;28.50;8.07;;;;;;;40.65;37.35;101209.19;5033892;28;20422;-84
2023/05/29 09:29:41;;;;;;;31.63;8.67;;;;;;;40.68;37.27;101250.16;5033978;28;20457;-82
2023/05/29 09:32:12;;;;;;;23.40;8.30;;;;;;;40.56;36.72;101258.09;5031310;28;20434;-83
2023/05/29 09:34:39;;;;;;;18.37;7.00;;;;;;;40.60;36.44;101253.66;5034239;28;20452;-82
2023/05/29 09:37:10;;;;;;;21.83;7.37;;;;;;;40.58;35.67;101247.75;5034113;28;20458;-83
2023/05/29 09:39:46;;;;;;;28.50;7.17;;;;;;;40.58;35.44;101245.03;5048370;28;20483;-84
2023/05/29 09:42:14;;;;;;;19.87;6.47;;;;;;;40.49;35.59;101236.81;5033977;28;20425;-83
2023/05/29 09:44:41;;;;;;;22.30;6.77;;;;;;;40.55;35.18;101234.75;5033950;28;20461;-85
2023/05/29 09:47:07;;;;;;;24.30;8.50;;;;;;;40.59;35.15;101235.75;5033583;28;20411;-85
2023/05/29 09:49:34;;;;;;;31.73;7.93;;;;;;;40.60;34.80;101234.63;5050767;28;20461;-83
2023/05/29 09:52:00;;;;;;;21.60;6.63;;;;;;;40.60;34.17;101225.66;5017647;28;20509;-82
2023/05/29 09:54:30;;;;;;;17.87;6.70;;;;;;;40.60;34.63;101215.59;5033005;28;20414;-83
2023/05/29 09:56:58;;;;;;;16.10;6.33;;;;;;;40.63;34.57;101222.28;5048950;28;20442;-83
2023/05/29 09:59:25;;;;;;;17.37;5.50;;;;;;;40.60;34.15;101236.53;5033769;28;20468;-84
2023/05/29 10:02:01;;;;;;;19.97;7.07;;;;;;;40.44;34.75;101239.66;5049907;28;20459;-85
2023/05/29 10:04:27;;;;;;;13.47;4.63;;;;;;;40.47;34.59;101243.66;5035105;28;20438;-84
2023/05/29 10:06:56;;;;;;;19.73;6.70;;;;;;;40.48;34.74;101251.53;5034895;28;20505;-83
2023/05/29 10:09:27;;;;;;;17.80;5.27;;;;;;;40.43;34.68;101248.91;5035095;28;20419;-83
2023/05/29 10:11:57;;;;;;;13.57;3.93;;;;;;;40.31;35.18;101247.91;5034902;28;20506;-85
2023/05/29 10:14:25;;;;;;;11.10;4.93;;;;;;;40.31;35.08;101242.47;5034887;28;20427;-85
2023/05/29 10:16:57;;;;;;;16.73;5.97;;;;;;;40.26;35.68;101244.22;5034530;28;20450;-84
2023/05/29 10:19:28;;;;;;;19.33;5.70;;;;;;;40.08;35.49;101247.16;5034818;28;20422;-84
2023/05/29 10:21:56;;;;;;;16.83;6.10;;;;;;;40.02;35.85;101241.03;5033817;28;20426;-84
2023/05/29 10:24:22;;;;;;;22.17;8.50;;;;;;;39.96;36.28;101231.41;5034951;28;20810;-85
2023/05/29 10:26:50;;;;;;;13.93;5.43;;;;;;;40.01;36.25;101240.22;5034844;28;20847;-84
2023/05/29 10:29:36;;;;;;;23.00;6.30;;;;;;;40.07;36.41;101246.38;5034583;28;20550;-84
2023/05/29 10:32:18;;;;;;;18.57;8.50;;;;;;;39.90;36.24;101246.22;5034683;28;20426;-85
2023/05/29 10:34:50;;;;;;;25.37;7.10;;;;;;;40.07;36.54;101251.00;5034955;28;20796;-84
2023/05/29 10:37:26;;;;;;;13.70;7.23;;;;;;;39.89;36.63;101253.59;5034528;28;20455;-83
2023/05/29 10:39:52;;;;;;;13.80;7.40;;;;;;;40.08;36.46;101237.09;5034837;28;20406;-85
2023/05/29 10:42:44;;;;;;;15.60;5.47;;;;;;;40.22;36.65;101239.75;5052939;28;20415;-85
2023/05/29 10:45:11;;;;;;;16.87;6.90;;;;;;;40.31;36.72;101256.88;5034765;28;20501;-84
2023/05/29 10:47:41;;;;;;;13.07;6.53;;;;;;;40.33;37.33;101270.13;5043976;28;20480;-81
2023/05/29 10:50:09;;;;;;;20.53;6.07;;;;;;;40.32;36.98;101268.53;5053393;28;20457;-90
2023/05/29 10:52:47;;;;;;;20.27;7.43;;;;;;;40.11;36.92;101285.41;5035386;28;20479;-87
2023/05/29 10:55:16;;;;;;;19.13;7.70;;;;;;;40.06;36.40;101298.31;5035543;28;20414;-88
2023/05/29 10:57:48;;;;;;;14.07;5.10;;;;;;;40.02;36.32;101303.53;5034069;28;20449;-87
2023/05/29 11:00:23;;;;;;;16.40;5.47;;;;;;;40.01;35.97;101304.63;5034485;28;20462;-85
2023/05/29 11:02:53;;;;;;;25.13;7.80;;;;;;;40.17;36.08;101299.66;5019495;28;20556;-89
2023/05/29 11:05:24;;;;;;;12.37;4.83;;;;;;;39.90;36.21;101300.56;5036502;28;20422;-89
2023/05/29 11:08:03;;;;;;;13.30;4.20;;;;;;;40.10;35.89;101316.41;5037724;28;20418;-87
2023/05/29 11:10:55;;;;;;;15.83;4.90;;;;;;;40.24;36.50;101324.47;5038358;28;20478;-89
2023/05/29 11:13:26;;;;;;;16.10;5.57;;;;;;;40.31;35.35;101327.53;5032505;28;20474;-91
2023/05/29 11:16:10;;;;;;;10.77;4.67;;;;;;;40.21;35.83;101331.34;5034268;28;20497;-89
2023/05/29 11:18:47;;;;;;;13.10;4.90;;;;;;;40.19;35.86;101327.31;5032671;28;20543;-88
2023/05/29 11:21:50;;;;;;;13.90;4.90;;;;;;;40.02;36.19;101333.41;5038819;28;20851;-91